sensor_id;sensor_type;location;lat;lon;timestamp;P1;durP1;ratioP1;P2;durP2;ratioP2
23555;SDS011;11956;53.184;8.578;2023-03-23T00:00:56;38.17;;;28.85;;
23555;SDS011;11956;53.184;8.578;2023-03-23T00:03:57;45.00;;;32.55;;
23555;SDS011;11956;53.184;8.578;2023-03-23T00:06:58;33.35;;;28.98;;
23555;SDS011;11956;53.184;8.578;2023-03-23T00:10:03;37.08;;;29.67;;
23555;SDS011;11956;53.184;8.578;2023-03-23T00:13:04;33.85;;;26.90;;
23555;SDS011;11956;53.184;8.578;2023-03-23T00:16:05;41.35;;;31.40;;
23555;SDS011;11956;53.184;8.578;2023-03-23T00:19:17;37.75;;;29.08;;
23555;SDS011;11956;53.184;8.578;2023-03-23T00:22:19;40.55;;;31.65;;
23555;SDS011;11956;53.184;8.578;2023-03-23T00:25:21;37.78;;;29.10;;
23555;SDS011;11956;53.184;8.578;2023-03-23T00:28:22;33.83;;;26.98;;
23555;SDS011;11956;53.184;8.578;2023-03-23T00:31:26;31.02;;;25.80;;
23555;SDS011;11956;53.184;8.578;2023-03-23T00:34:32;33.78;;;27.30;;
23555;SDS011;11956;53.184;8.578;2023-03-23T00:37:34;38.72;;;29.80;;
23555;SDS011;11956;53.184;8.578;2023-03-23T00:40:35;32.58;;;27.23;;
23555;SDS011;11956;53.184;8.578;2023-03-23T00:43:36;33.92;;;28.65;;
23555;SDS011;11956;53.184;8.578;2023-03-23T00:46:39;33.45;;;27.10;;
23555;SDS011;11956;53.184;8.578;2023-03-23T00:49:45;29.42;;;25.58;;
23555;SDS011;11956;53.184;8.578;2023-03-23T00:52:45;32.45;;;26.90;;
23555;SDS011;11956;53.184;8.578;2023-03-23T00:55:47;31.15;;;25.88;;
23555;SDS011;11956;53.184;8.578;2023-03-23T00:58:49;32.75;;;26.77;;
23555;SDS011;11956;53.184;8.578;2023-03-23T01:01:50;31.10;;;25.98;;
23555;SDS011;11956;53.184;8.578;2023-03-23T01:04:51;32.10;;;27.23;;
23555;SDS011;11956;53.184;8.578;2023-03-23T01:07:55;28.10;;;23.38;;
23555;SDS011;11956;53.184;8.578;2023-03-23T01:11:01;31.33;;;24.33;;
23555;SDS011;11956;53.184;8.578;2023-03-23T01:14:06;29.45;;;23.27;;
23555;SDS011;11956;53.184;8.578;2023-03-23T01:17:08;26.27;;;22.85;;
23555;SDS011;11956;53.184;8.578;2023-03-23T01:20:09;26.67;;;23.55;;
23555;SDS011;11956;53.184;8.578;2023-03-23T01:23:13;26.02;;;21.30;;
23555;SDS011;11956;53.184;8.578;2023-03-23T01:26:16;25.10;;;20.95;;
23555;SDS011;11956;53.184;8.578;2023-03-23T01:29:20;25.42;;;21.45;;
23555;SDS011;11956;53.184;8.578;2023-03-23T01:32:22;23.75;;;20.55;;
23555;SDS011;11956;53.184;8.578;2023-03-23T01:35:22;23.63;;;20.75;;
23555;SDS011;11956;53.184;8.578;2023-03-23T01:38:25;24.48;;;20.05;;
23555;SDS011;11956;53.184;8.578;2023-03-23T01:41:26;24.20;;;19.45;;
23555;SDS011;11956;53.184;8.578;2023-03-23T01:47:39;24.15;;;18.95;;
23555;SDS011;11956;53.184;8.578;2023-03-23T01:50:56;21.92;;;17.60;;
23555;SDS011;11956;53.184;8.578;2023-03-23T01:54:11;20.27;;;17.63;;
23555;SDS011;11956;53.184;8.578;2023-03-23T01:57:19;22.33;;;17.50;;
23555;SDS011;11956;53.184;8.578;2023-03-23T02:00:24;21.38;;;17.42;;
23555;SDS011;11956;53.184;8.578;2023-03-23T02:03:28;23.10;;;18.05;;
23555;SDS011;11956;53.184;8.578;2023-03-23T02:06:31;20.75;;;17.00;;
23555;SDS011;11956;53.184;8.578;2023-03-23T02:09:59;20.98;;;16.42;;
23555;SDS011;11956;53.184;8.578;2023-03-23T02:13:05;19.88;;;16.38;;
23555;SDS011;11956;53.184;8.578;2023-03-23T02:16:18;20.20;;;15.75;;
23555;SDS011;11956;53.184;8.578;2023-03-23T02:33:16;17.25;;;12.80;;
23555;SDS011;11956;53.184;8.578;2023-03-23T02:36:36;16.33;;;12.77;;
23555;SDS011;11956;53.184;8.578;2023-03-23T02:39:48;15.95;;;13.43;;
23555;SDS011;11956;53.184;8.578;2023-03-23T02:42:59;19.25;;;14.13;;
23555;SDS011;11956;53.184;8.578;2023-03-23T02:46:04;20.02;;;13.75;;
23555;SDS011;11956;53.184;8.578;2023-03-23T02:49:08;16.48;;;13.07;;
23555;SDS011;11956;53.184;8.578;2023-03-23T02:52:15;15.35;;;12.30;;
23555;SDS011;11956;53.184;8.578;2023-03-23T02:55:22;17.20;;;12.25;;
23555;SDS011;11956;53.184;8.578;2023-03-23T03:04:28;16.48;;;11.82;;
23555;SDS011;11956;53.184;8.578;2023-03-23T03:10:51;15.13;;;11.07;;
23555;SDS011;11956;53.184;8.578;2023-03-23T03:14:13;13.80;;;11.38;;
23555;SDS011;11956;53.184;8.578;2023-03-23T03:17:26;14.57;;;11.00;;
23555;SDS011;11956;53.184;8.578;2023-03-23T03:20:31;15.63;;;11.77;;
23555;SDS011;11956;53.184;8.578;2023-03-23T03:23:36;14.02;;;11.45;;
23555;SDS011;11956;53.184;8.578;2023-03-23T03:26:42;14.52;;;11.18;;
23555;SDS011;11956;53.184;8.578;2023-03-23T03:30:04;15.98;;;10.95;;
23555;SDS011;11956;53.184;8.578;2023-03-23T03:33:10;17.73;;;11.45;;
23555;SDS011;11956;53.184;8.578;2023-03-23T03:36:32;13.50;;;10.93;;
23555;SDS011;11956;53.184;8.578;2023-03-23T03:39:39;14.15;;;10.00;;
23555;SDS011;11956;53.184;8.578;2023-03-23T03:42:40;13.68;;;9.60;;
23555;SDS011;11956;53.184;8.578;2023-03-23T03:45:43;14.57;;;10.65;;
23555;SDS011;11956;53.184;8.578;2023-03-23T03:48:45;12.68;;;10.00;;
23555;SDS011;11956;53.184;8.578;2023-03-23T03:51:46;12.18;;;8.65;;
23555;SDS011;11956;53.184;8.578;2023-03-23T03:54:53;13.15;;;9.82;;
23555;SDS011;11956;53.184;8.578;2023-03-23T03:57:55;13.60;;;9.50;;
23555;SDS011;11956;53.184;8.578;2023-03-23T04:01:26;13.52;;;9.00;;
23555;SDS011;11956;53.184;8.578;2023-03-23T04:04:28;12.57;;;9.05;;
23555;SDS011;11956;53.184;8.578;2023-03-23T04:07:29;11.57;;;8.77;;
23555;SDS011;11956;53.184;8.578;2023-03-23T04:10:31;12.50;;;9.63;;
23555;SDS011;11956;53.184;8.578;2023-03-23T04:13:34;15.55;;;10.27;;
23555;SDS011;11956;53.184;8.578;2023-03-23T04:16:44;15.32;;;10.38;;
23555;SDS011;11956;53.184;8.578;2023-03-23T04:19:45;14.13;;;10.07;;
23555;SDS011;11956;53.184;8.578;2023-03-23T04:22:48;14.10;;;10.68;;
23555;SDS011;11956;53.184;8.578;2023-03-23T04:25:49;13.85;;;10.25;;
23555;SDS011;11956;53.184;8.578;2023-03-23T04:28:52;16.48;;;11.07;;
23555;SDS011;11956;53.184;8.578;2023-03-23T04:32:08;16.25;;;10.63;;
23555;SDS011;11956;53.184;8.578;2023-03-23T04:35:14;13.55;;;10.40;;
23555;SDS011;11956;53.184;8.578;2023-03-23T04:38:46;12.82;;;9.48;;
23555;SDS011;11956;53.184;8.578;2023-03-23T04:41:55;12.75;;;9.77;;
23555;SDS011;11956;53.184;8.578;2023-03-23T04:45:18;13.18;;;10.23;;
23555;SDS011;11956;53.184;8.578;2023-03-23T04:48:27;11.88;;;9.25;;
23555;SDS011;11956;53.184;8.578;2023-03-23T04:51:50;14.50;;;8.95;;
23555;SDS011;11956;53.184;8.578;2023-03-23T04:55:21;12.70;;;8.75;;
23555;SDS011;11956;53.184;8.578;2023-03-23T04:58:29;12.32;;;8.50;;
23555;SDS011;11956;53.184;8.578;2023-03-23T05:01:59;12.90;;;8.50;;
23555;SDS011;11956;53.184;8.578;2023-03-23T05:05:01;13.05;;;8.70;;
23555;SDS011;11956;53.184;8.578;2023-03-23T05:08:03;10.60;;;8.32;;
23555;SDS011;11956;53.184;8.578;2023-03-23T05:11:08;12.98;;;8.15;;
23555;SDS011;11956;53.184;8.578;2023-03-23T05:14:12;10.75;;;7.75;;
23555;SDS011;11956;53.184;8.578;2023-03-23T05:17:15;12.05;;;7.93;;
23555;SDS011;11956;53.184;8.578;2023-03-23T05:20:18;10.32;;;7.95;;
23555;SDS011;11956;53.184;8.578;2023-03-23T05:23:23;12.57;;;8.13;;
23555;SDS011;11956;53.184;8.578;2023-03-23T05:26:28;12.05;;;7.65;;
23555;SDS011;11956;53.184;8.578;2023-03-23T05:29:36;11.88;;;7.57;;
23555;SDS011;11956;53.184;8.578;2023-03-23T05:32:41;10.50;;;6.78;;
23555;SDS011;11956;53.184;8.578;2023-03-23T05:36:02;9.85;;;7.03;;
23555;SDS011;11956;53.184;8.578;2023-03-23T05:39:13;10.57;;;7.28;;
23555;SDS011;11956;53.184;8.578;2023-03-23T05:42:33;11.80;;;6.88;;
23555;SDS011;11956;53.184;8.578;2023-03-23T05:45:46;11.13;;;7.07;;
23555;SDS011;11956;53.184;8.578;2023-03-23T05:48:47;9.10;;;6.45;;
23555;SDS011;11956;53.184;8.578;2023-03-23T05:51:51;9.80;;;7.07;;
23555;SDS011;11956;53.184;8.578;2023-03-23T05:54:53;9.90;;;7.00;;
23555;SDS011;11956;53.184;8.578;2023-03-23T05:57:56;11.50;;;7.22;;
23555;SDS011;11956;53.184;8.578;2023-03-23T06:01:06;9.85;;;7.60;;
23555;SDS011;11956;53.184;8.578;2023-03-23T06:04:07;11.98;;;7.15;;
23555;SDS011;11956;53.184;8.578;2023-03-23T06:07:18;10.75;;;6.65;;
23555;SDS011;11956;53.184;8.578;2023-03-23T06:10:29;9.98;;;7.20;;
23555;SDS011;11956;53.184;8.578;2023-03-23T06:13:35;9.95;;;7.28;;
23555;SDS011;11956;53.184;8.578;2023-03-23T06:16:41;9.77;;;6.65;;
23555;SDS011;11956;53.184;8.578;2023-03-23T06:19:46;11.23;;;6.53;;
23555;SDS011;11956;53.184;8.578;2023-03-23T06:22:50;11.30;;;6.22;;
23555;SDS011;11956;53.184;8.578;2023-03-23T06:26:05;8.45;;;5.65;;
23555;SDS011;11956;53.184;8.578;2023-03-23T06:29:09;10.32;;;5.90;;
23555;SDS011;11956;53.184;8.578;2023-03-23T06:32:18;10.27;;;5.88;;
23555;SDS011;11956;53.184;8.578;2023-03-23T06:35:20;10.70;;;5.90;;
23555;SDS011;11956;53.184;8.578;2023-03-23T06:38:42;8.18;;;5.72;;
23555;SDS011;11956;53.184;8.578;2023-03-23T06:41:45;7.03;;;5.50;;
23555;SDS011;11956;53.184;8.578;2023-03-23T06:44:46;8.07;;;5.50;;
23555;SDS011;11956;53.184;8.578;2023-03-23T06:47:47;9.45;;;5.47;;
23555;SDS011;11956;53.184;8.578;2023-03-23T06:50:48;7.40;;;5.40;;
23555;SDS011;11956;53.184;8.578;2023-03-23T06:53:51;9.32;;;5.93;;
23555;SDS011;11956;53.184;8.578;2023-03-23T06:56:53;11.45;;;6.50;;
23555;SDS011;11956;53.184;8.578;2023-03-23T06:59:54;11.88;;;7.22;;
23555;SDS011;11956;53.184;8.578;2023-03-23T07:02:57;11.05;;;6.72;;
23555;SDS011;11956;53.184;8.578;2023-03-23T07:05:59;12.30;;;7.00;;
23555;SDS011;11956;53.184;8.578;2023-03-23T07:09:05;12.02;;;7.60;;
23555;SDS011;11956;53.184;8.578;2023-03-23T07:12:07;8.35;;;5.20;;
23555;SDS011;11956;53.184;8.578;2023-03-23T07:15:14;9.32;;;4.22;;
23555;SDS011;11956;53.184;8.578;2023-03-23T07:18:19;7.80;;;4.80;;
23555;SDS011;11956;53.184;8.578;2023-03-23T07:21:23;8.90;;;4.15;;
23555;SDS011;11956;53.184;8.578;2023-03-23T07:24:24;8.80;;;3.03;;
23555;SDS011;11956;53.184;8.578;2023-03-23T07:27:44;7.97;;;2.78;;
23555;SDS011;11956;53.184;8.578;2023-03-23T07:30:47;10.35;;;3.40;;
23555;SDS011;11956;53.184;8.578;2023-03-23T07:33:49;10.07;;;2.95;;
23555;SDS011;11956;53.184;8.578;2023-03-23T07:36:51;10.43;;;3.15;;
23555;SDS011;11956;53.184;8.578;2023-03-23T07:39:52;7.95;;;2.30;;
23555;SDS011;11956;53.184;8.578;2023-03-23T07:42:55;7.22;;;1.88;;
23555;SDS011;11956;53.184;8.578;2023-03-23T07:46:13;5.97;;;1.80;;
23555;SDS011;11956;53.184;8.578;2023-03-23T07:49:36;8.60;;;1.98;;
23555;SDS011;11956;53.184;8.578;2023-03-23T07:52:56;12.93;;;2.25;;
23555;SDS011;11956;53.184;8.578;2023-03-23T07:56:02;8.90;;;2.40;;
23555;SDS011;11956;53.184;8.578;2023-03-23T07:59:23;6.45;;;1.88;;
23555;SDS011;11956;53.184;8.578;2023-03-23T08:02:25;9.10;;;2.42;;
23555;SDS011;11956;53.184;8.578;2023-03-23T08:05:49;7.88;;;2.03;;
23555;SDS011;11956;53.184;8.578;2023-03-23T08:09:10;9.70;;;2.22;;
23555;SDS011;11956;53.184;8.578;2023-03-23T08:12:33;7.13;;;2.20;;
23555;SDS011;11956;53.184;8.578;2023-03-23T08:15:52;7.40;;;2.10;;
23555;SDS011;11956;53.184;8.578;2023-03-23T08:19:13;8.70;;;2.42;;
23555;SDS011;11956;53.184;8.578;2023-03-23T08:22:53;7.78;;;1.88;;
23555;SDS011;11956;53.184;8.578;2023-03-23T08:26:20;9.07;;;3.20;;
23555;SDS011;11956;53.184;8.578;2023-03-23T08:29:50;6.20;;;2.28;;
23555;SDS011;11956;53.184;8.578;2023-03-23T08:33:17;9.73;;;2.33;;
23555;SDS011;11956;53.184;8.578;2023-03-23T08:36:21;6.18;;;2.40;;
23555;SDS011;11956;53.184;8.578;2023-03-23T08:39:25;6.15;;;2.40;;
23555;SDS011;11956;53.184;8.578;2023-03-23T08:42:45;9.57;;;3.35;;
23555;SDS011;11956;53.184;8.578;2023-03-23T08:46:08;9.90;;;2.42;;
23555;SDS011;11956;53.184;8.578;2023-03-23T08:49:43;10.38;;;2.42;;
23555;SDS011;11956;53.184;8.578;2023-03-23T08:53:05;8.98;;;2.75;;
23555;SDS011;11956;53.184;8.578;2023-03-23T08:56:17;10.15;;;2.05;;
23555;SDS011;11956;53.184;8.578;2023-03-23T08:59:47;9.95;;;2.22;;
23555;SDS011;11956;53.184;8.578;2023-03-23T09:03:08;9.35;;;2.45;;
23555;SDS011;11956;53.184;8.578;2023-03-23T09:06:25;8.25;;;2.47;;
23555;SDS011;11956;53.184;8.578;2023-03-23T09:09:27;11.27;;;2.55;;
23555;SDS011;11956;53.184;8.578;2023-03-23T09:12:28;7.95;;;2.17;;
23555;SDS011;11956;53.184;8.578;2023-03-23T09:15:30;12.75;;;2.63;;
23555;SDS011;11956;53.184;8.578;2023-03-23T09:18:31;16.35;;;3.60;;
23555;SDS011;11956;53.184;8.578;2023-03-23T09:21:33;9.20;;;2.55;;
23555;SDS011;11956;53.184;8.578;2023-03-23T09:24:34;11.55;;;2.58;;
23555;SDS011;11956;53.184;8.578;2023-03-23T09:27:36;9.68;;;2.35;;
23555;SDS011;11956;53.184;8.578;2023-03-23T09:30:39;12.27;;;2.70;;
23555;SDS011;11956;53.184;8.578;2023-03-23T09:33:40;12.63;;;4.93;;
23555;SDS011;11956;53.184;8.578;2023-03-23T09:36:42;11.73;;;2.83;;
23555;SDS011;11956;53.184;8.578;2023-03-23T09:39:44;11.15;;;2.92;;
23555;SDS011;11956;53.184;8.578;2023-03-23T09:46:10;14.00;;;3.40;;
23555;SDS011;11956;53.184;8.578;2023-03-23T09:49:48;9.30;;;2.85;;
23555;SDS011;11956;53.184;8.578;2023-03-23T09:53:25;9.95;;;2.60;;
23555;SDS011;11956;53.184;8.578;2023-03-23T09:56:59;8.75;;;2.58;;
23555;SDS011;11956;53.184;8.578;2023-03-23T10:00:03;9.20;;;2.63;;
23555;SDS011;11956;53.184;8.578;2023-03-23T10:03:27;6.93;;;2.58;;
23555;SDS011;11956;53.184;8.578;2023-03-23T10:06:39;7.15;;;2.53;;
23555;SDS011;11956;53.184;8.578;2023-03-23T10:09:41;8.23;;;2.30;;
23555;SDS011;11956;53.184;8.578;2023-03-23T10:12:51;12.73;;;2.58;;
23555;SDS011;11956;53.184;8.578;2023-03-23T10:16:25;9.87;;;2.97;;
23555;SDS011;11956;53.184;8.578;2023-03-23T10:23:02;10.55;;;2.90;;
23555;SDS011;11956;53.184;8.578;2023-03-23T10:30:11;11.10;;;2.88;;
23555;SDS011;11956;53.184;8.578;2023-03-23T10:33:50;7.28;;;2.42;;
23555;SDS011;11956;53.184;8.578;2023-03-23T10:37:02;14.27;;;2.90;;
23555;SDS011;11956;53.184;8.578;2023-03-23T10:40:25;9.48;;;2.60;;
23555;SDS011;11956;53.184;8.578;2023-03-23T10:43:29;10.32;;;2.58;;
23555;SDS011;11956;53.184;8.578;2023-03-23T10:49:51;12.15;;;2.90;;
23555;SDS011;11956;53.184;8.578;2023-03-23T10:52:58;14.60;;;3.30;;
23555;SDS011;11956;53.184;8.578;2023-03-23T10:56:01;14.50;;;3.58;;
23555;SDS011;11956;53.184;8.578;2023-03-23T10:59:13;9.37;;;3.30;;
23555;SDS011;11956;53.184;8.578;2023-03-23T11:02:37;13.90;;;3.38;;
23555;SDS011;11956;53.184;8.578;2023-03-23T11:08:55;15.07;;;3.17;;
23555;SDS011;11956;53.184;8.578;2023-03-23T11:12:16;15.88;;;3.17;;
23555;SDS011;11956;53.184;8.578;2023-03-23T11:15:32;11.18;;;2.92;;
23555;SDS011;11956;53.184;8.578;2023-03-23T11:18:42;13.27;;;2.90;;
23555;SDS011;11956;53.184;8.578;2023-03-23T11:21:50;15.43;;;4.18;;
23555;SDS011;11956;53.184;8.578;2023-03-23T11:24:55;11.10;;;3.00;;
23555;SDS011;11956;53.184;8.578;2023-03-23T11:28:00;11.82;;;3.40;;
23555;SDS011;11956;53.184;8.578;2023-03-23T11:31:03;12.65;;;3.90;;
23555;SDS011;11956;53.184;8.578;2023-03-23T11:34:10;11.10;;;3.42;;
23555;SDS011;11956;53.184;8.578;2023-03-23T11:38:00;11.85;;;3.28;;
23555;SDS011;11956;53.184;8.578;2023-03-23T11:40:47;7.88;;;2.80;;
23555;SDS011;11956;53.184;8.578;2023-03-23T11:43:51;9.02;;;2.97;;
23555;SDS011;11956;53.184;8.578;2023-03-23T11:46:59;13.82;;;2.80;;
23555;SDS011;11956;53.184;8.578;2023-03-23T11:56:53;7.43;;;2.00;;
23555;SDS011;11956;53.184;8.578;2023-03-23T11:59:55;8.10;;;2.10;;
23555;SDS011;11956;53.184;8.578;2023-03-23T12:03:03;12.00;;;2.90;;
23555;SDS011;11956;53.184;8.578;2023-03-23T12:10:39;9.07;;;2.08;;
23555;SDS011;11956;53.184;8.578;2023-03-23T12:38:02;9.00;;;2.72;;
23555;SDS011;11956;53.184;8.578;2023-03-23T12:44:50;5.68;;;2.05;;
23555;SDS011;11956;53.184;8.578;2023-03-23T12:47:59;6.78;;;1.80;;
23555;SDS011;11956;53.184;8.578;2023-03-23T12:58:30;5.57;;;1.60;;
23555;SDS011;11956;53.184;8.578;2023-03-23T13:01:42;11.43;;;3.03;;
23555;SDS011;11956;53.184;8.578;2023-03-23T13:04:51;6.72;;;2.10;;
23555;SDS011;11956;53.184;8.578;2023-03-23T13:08:18;6.40;;;1.77;;
23555;SDS011;11956;53.184;8.578;2023-03-23T13:11:35;8.15;;;2.20;;
23555;SDS011;11956;53.184;8.578;2023-03-23T13:14:43;6.88;;;1.85;;
23555;SDS011;11956;53.184;8.578;2023-03-23T13:21:53;12.27;;;1.92;;
23555;SDS011;11956;53.184;8.578;2023-03-23T13:29:08;6.43;;;1.67;;
23555;SDS011;11956;53.184;8.578;2023-03-23T13:32:17;6.50;;;2.28;;
23555;SDS011;11956;53.184;8.578;2023-03-23T13:35:20;7.82;;;2.60;;
23555;SDS011;11956;53.184;8.578;2023-03-23T13:38:25;5.75;;;1.65;;
23555;SDS011;11956;53.184;8.578;2023-03-23T13:41:31;9.45;;;2.10;;
23555;SDS011;11956;53.184;8.578;2023-03-23T13:44:55;5.40;;;2.22;;
23555;SDS011;11956;53.184;8.578;2023-03-23T13:51:23;5.90;;;1.42;;
23555;SDS011;11956;53.184;8.578;2023-03-23T13:54:42;6.57;;;1.90;;
23555;SDS011;11956;53.184;8.578;2023-03-23T14:04:18;8.25;;;1.55;;
23555;SDS011;11956;53.184;8.578;2023-03-23T14:07:20;4.63;;;1.30;;
23555;SDS011;11956;53.184;8.578;2023-03-23T14:10:21;4.75;;;1.73;;
23555;SDS011;11956;53.184;8.578;2023-03-23T14:16:48;8.23;;;2.20;;
23555;SDS011;11956;53.184;8.578;2023-03-23T14:19:53;7.38;;;1.75;;
23555;SDS011;11956;53.184;8.578;2023-03-23T14:23:18;4.22;;;1.40;;
23555;SDS011;11956;53.184;8.578;2023-03-23T14:26:20;5.43;;;1.88;;
23555;SDS011;11956;53.184;8.578;2023-03-23T14:29:21;7.95;;;1.42;;
23555;SDS011;11956;53.184;8.578;2023-03-23T14:32:23;11.80;;;1.65;;
23555;SDS011;11956;53.184;8.578;2023-03-23T14:35:27;5.40;;;1.43;;
23555;SDS011;11956;53.184;8.578;2023-03-23T14:38:33;5.88;;;1.48;;
23555;SDS011;11956;53.184;8.578;2023-03-23T14:41:34;4.93;;;1.27;;
23555;SDS011;11956;53.184;8.578;2023-03-23T14:44:43;6.97;;;1.73;;
23555;SDS011;11956;53.184;8.578;2023-03-23T14:47:48;7.80;;;1.92;;
23555;SDS011;11956;53.184;8.578;2023-03-23T14:50:58;6.72;;;1.70;;
23555;SDS011;11956;53.184;8.578;2023-03-23T14:54:08;10.57;;;2.13;;
23555;SDS011;11956;53.184;8.578;2023-03-23T14:57:17;9.10;;;2.40;;
23555;SDS011;11956;53.184;8.578;2023-03-23T15:00:30;6.32;;;1.88;;
23555;SDS011;11956;53.184;8.578;2023-03-23T15:03:42;7.53;;;2.03;;
23555;SDS011;11956;53.184;8.578;2023-03-23T15:06:51;8.88;;;1.80;;
23555;SDS011;11956;53.184;8.578;2023-03-23T15:09:59;9.13;;;1.77;;
23555;SDS011;11956;53.184;8.578;2023-03-23T15:13:00;8.60;;;2.10;;
23555;SDS011;11956;53.184;8.578;2023-03-23T15:16:05;13.10;;;1.98;;
23555;SDS011;11956;53.184;8.578;2023-03-23T15:19:36;7.45;;;2.00;;
23555;SDS011;11956;53.184;8.578;2023-03-23T15:22:44;10.40;;;2.17;;
23555;SDS011;11956;53.184;8.578;2023-03-23T15:25:48;11.30;;;3.38;;
23555;SDS011;11956;53.184;8.578;2023-03-23T15:29:16;8.23;;;2.50;;
23555;SDS011;11956;53.184;8.578;2023-03-23T15:32:21;8.00;;;2.40;;
23555;SDS011;11956;53.184;8.578;2023-03-23T15:35:25;9.13;;;2.72;;
23555;SDS011;11956;53.184;8.578;2023-03-23T15:38:31;12.00;;;3.38;;
23555;SDS011;11956;53.184;8.578;2023-03-23T15:41:33;11.10;;;2.15;;
23555;SDS011;11956;53.184;8.578;2023-03-23T15:44:54;8.13;;;2.03;;
23555;SDS011;11956;53.184;8.578;2023-03-23T15:48:12;9.90;;;2.40;;
23555;SDS011;11956;53.184;8.578;2023-03-23T15:51:14;8.82;;;2.05;;
23555;SDS011;11956;53.184;8.578;2023-03-23T15:54:16;7.95;;;1.50;;
23555;SDS011;11956;53.184;8.578;2023-03-23T15:57:17;4.75;;;1.40;;
23555;SDS011;11956;53.184;8.578;2023-03-23T16:00:19;3.83;;;1.25;;
23555;SDS011;11956;53.184;8.578;2023-03-23T16:03:23;6.03;;;1.65;;
23555;SDS011;11956;53.184;8.578;2023-03-23T16:06:29;6.80;;;1.70;;
23555;SDS011;11956;53.184;8.578;2023-03-23T16:09:32;5.00;;;1.75;;
23555;SDS011;11956;53.184;8.578;2023-03-23T16:12:33;7.63;;;1.75;;
23555;SDS011;11956;53.184;8.578;2023-03-23T16:15:34;9.70;;;2.00;;
23555;SDS011;11956;53.184;8.578;2023-03-23T16:18:35;8.07;;;2.00;;
23555;SDS011;11956;53.184;8.578;2023-03-23T16:21:36;5.50;;;1.92;;
23555;SDS011;11956;53.184;8.578;2023-03-23T16:24:37;9.75;;;2.13;;
23555;SDS011;11956;53.184;8.578;2023-03-23T16:27:39;8.85;;;2.78;;
23555;SDS011;11956;53.184;8.578;2023-03-23T16:30:42;9.85;;;2.50;;
23555;SDS011;11956;53.184;8.578;2023-03-23T16:33:43;6.32;;;2.20;;
23555;SDS011;11956;53.184;8.578;2023-03-23T16:36:45;6.43;;;1.63;;
23555;SDS011;11956;53.184;8.578;2023-03-23T16:39:46;8.00;;;1.83;;
23555;SDS011;11956;53.184;8.578;2023-03-23T16:42:46;6.45;;;1.60;;
23555;SDS011;11956;53.184;8.578;2023-03-23T16:45:49;4.97;;;1.70;;
23555;SDS011;11956;53.184;8.578;2023-03-23T16:48:56;5.03;;;1.40;;
23555;SDS011;11956;53.184;8.578;2023-03-23T16:51:57;6.47;;;1.77;;
23555;SDS011;11956;53.184;8.578;2023-03-23T16:54:57;7.93;;;1.58;;
23555;SDS011;11956;53.184;8.578;2023-03-23T16:57:59;9.77;;;1.52;;
23555;SDS011;11956;53.184;8.578;2023-03-23T17:01:00;7.03;;;1.65;;
23555;SDS011;11956;53.184;8.578;2023-03-23T17:04:02;6.63;;;1.85;;
23555;SDS011;11956;53.184;8.578;2023-03-23T17:07:04;5.15;;;2.00;;
23555;SDS011;11956;53.184;8.578;2023-03-23T17:10:05;7.88;;;1.67;;
23555;SDS011;11956;53.184;8.578;2023-03-23T17:16:10;9.43;;;1.77;;
23555;SDS011;11956;53.184;8.578;2023-03-23T17:19:11;5.93;;;1.38;;
23555;SDS011;11956;53.184;8.578;2023-03-23T17:22:16;6.85;;;1.63;;
23555;SDS011;11956;53.184;8.578;2023-03-23T17:25:17;7.03;;;1.55;;
23555;SDS011;11956;53.184;8.578;2023-03-23T17:28:18;8.77;;;2.10;;
23555;SDS011;11956;53.184;8.578;2023-03-23T17:31:19;6.90;;;1.83;;
23555;SDS011;11956;53.184;8.578;2023-03-23T17:34:20;5.97;;;1.63;;
23555;SDS011;11956;53.184;8.578;2023-03-23T17:37:21;6.07;;;1.50;;
23555;SDS011;11956;53.184;8.578;2023-03-23T17:40:22;7.38;;;1.10;;
23555;SDS011;11956;53.184;8.578;2023-03-23T17:43:23;3.55;;;1.08;;
23555;SDS011;11956;53.184;8.578;2023-03-23T17:46:24;6.13;;;1.98;;
23555;SDS011;11956;53.184;8.578;2023-03-23T17:49:25;5.93;;;1.10;;
23555;SDS011;11956;53.184;8.578;2023-03-23T17:52:29;4.50;;;1.30;;
23555;SDS011;11956;53.184;8.578;2023-03-23T17:55:30;5.43;;;1.42;;
23555;SDS011;11956;53.184;8.578;2023-03-23T17:58:31;8.63;;;1.70;;
23555;SDS011;11956;53.184;8.578;2023-03-23T18:01:32;6.07;;;1.55;;
23555;SDS011;11956;53.184;8.578;2023-03-23T18:04:33;9.77;;;2.25;;
23555;SDS011;11956;53.184;8.578;2023-03-23T18:07:34;9.13;;;1.65;;
23555;SDS011;11956;53.184;8.578;2023-03-23T18:10:37;6.22;;;1.92;;
23555;SDS011;11956;53.184;8.578;2023-03-23T18:13:39;9.05;;;1.77;;
23555;SDS011;11956;53.184;8.578;2023-03-23T18:16:40;5.18;;;1.50;;
23555;SDS011;11956;53.184;8.578;2023-03-23T18:19:42;3.78;;;1.08;;
23555;SDS011;11956;53.184;8.578;2023-03-23T18:22:45;6.57;;;1.67;;
23555;SDS011;11956;53.184;8.578;2023-03-23T18:25:47;9.40;;;1.80;;
23555;SDS011;11956;53.184;8.578;2023-03-23T18:28:50;10.80;;;2.20;;
23555;SDS011;11956;53.184;8.578;2023-03-23T18:31:51;7.22;;;1.80;;
23555;SDS011;11956;53.184;8.578;2023-03-23T18:34:52;9.15;;;2.28;;
23555;SDS011;11956;53.184;8.578;2023-03-23T18:37:53;6.97;;;2.00;;
23555;SDS011;11956;53.184;8.578;2023-03-23T18:40:54;7.60;;;2.00;;
23555;SDS011;11956;53.184;8.578;2023-03-23T18:43:55;7.25;;;1.73;;
23555;SDS011;11956;53.184;8.578;2023-03-23T18:46:55;6.55;;;1.75;;
23555;SDS011;11956;53.184;8.578;2023-03-23T18:49:56;3.58;;;1.63;;
23555;SDS011;11956;53.184;8.578;2023-03-23T18:52:58;6.78;;;2.00;;
23555;SDS011;11956;53.184;8.578;2023-03-23T18:56:03;7.40;;;2.00;;
23555;SDS011;11956;53.184;8.578;2023-03-23T18:59:15;5.30;;;1.70;;
23555;SDS011;11956;53.184;8.578;2023-03-23T19:02:17;7.32;;;1.80;;
23555;SDS011;11956;53.184;8.578;2023-03-23T19:05:19;7.93;;;1.80;;
23555;SDS011;11956;53.184;8.578;2023-03-23T19:08:19;8.93;;;2.00;;
23555;SDS011;11956;53.184;8.578;2023-03-23T19:11:21;6.38;;;2.03;;
23555;SDS011;11956;53.184;8.578;2023-03-23T19:14:26;6.18;;;2.22;;
23555;SDS011;11956;53.184;8.578;2023-03-23T19:17:27;7.32;;;2.10;;
23555;SDS011;11956;53.184;8.578;2023-03-23T19:20:28;6.78;;;2.15;;
23555;SDS011;11956;53.184;8.578;2023-03-23T19:23:30;5.53;;;2.40;;
23555;SDS011;11956;53.184;8.578;2023-03-23T19:26:32;8.55;;;3.55;;
23555;SDS011;11956;53.184;8.578;2023-03-23T19:29:39;6.60;;;2.53;;
23555;SDS011;11956;53.184;8.578;2023-03-23T19:32:40;8.38;;;2.08;;
23555;SDS011;11956;53.184;8.578;2023-03-23T19:35:41;8.18;;;2.83;;
23555;SDS011;11956;53.184;8.578;2023-03-23T19:38:42;6.97;;;2.42;;
23555;SDS011;11956;53.184;8.578;2023-03-23T19:41:43;8.75;;;2.88;;
23555;SDS011;11956;53.184;8.578;2023-03-23T19:44:44;8.70;;;3.50;;
23555;SDS011;11956;53.184;8.578;2023-03-23T19:47:46;9.73;;;3.28;;
23555;SDS011;11956;53.184;8.578;2023-03-23T19:50:48;6.97;;;2.95;;
23555;SDS011;11956;53.184;8.578;2023-03-23T19:53:51;9.07;;;3.20;;
23555;SDS011;11956;53.184;8.578;2023-03-23T19:56:56;7.97;;;3.22;;
23555;SDS011;11956;53.184;8.578;2023-03-23T19:59:58;6.43;;;3.03;;
23555;SDS011;11956;53.184;8.578;2023-03-23T20:02:59;6.57;;;3.15;;
23555;SDS011;11956;53.184;8.578;2023-03-23T20:06:00;8.43;;;3.35;;
23555;SDS011;11956;53.184;8.578;2023-03-23T20:09:07;10.73;;;3.97;;
23555;SDS011;11956;53.184;8.578;2023-03-23T20:12:08;8.23;;;4.40;;
23555;SDS011;11956;53.184;8.578;2023-03-23T20:15:09;10.75;;;4.70;;
23555;SDS011;11956;53.184;8.578;2023-03-23T20:18:10;9.35;;;5.68;;
23555;SDS011;11956;53.184;8.578;2023-03-23T20:21:14;7.97;;;6.00;;
23555;SDS011;11956;53.184;8.578;2023-03-23T20:24:21;11.80;;;6.25;;
23555;SDS011;11956;53.184;8.578;2023-03-23T20:27:22;9.50;;;5.80;;
23555;SDS011;11956;53.184;8.578;2023-03-23T20:30:23;11.85;;;7.25;;